Accueil
METAR-TAF:

METAR-TAF

Aéroports :

Luni

Sarzana, Italie

latitude: 44-05N, longitude: 009-59E, altitude: 9 m

Observation

Le bulletin a été fait il y a 30 minutes, à 06:55 UTC
Vent 5 kt de ouest
Température 10°C
Humidité 50%
Pression 1022 hPa
Visibilité 10 km ou plus
pas de nuages en-dessous de 1500 mètres et pas de cumulonimbus.

METAR: LIQW 090655Z 28005KT CAVOK 10/00 Q1022 RMK SKC VIS MIN 9999 WIND THR18 33008KT BLU

Heure: 09:25 (07:25 UTC)

Prévision

Le bulletin a été fait il y a 1 heure et 25 minutes, à 06:00 UTC
Prévision valable du 09 à 06 UTC au 09 à 15 UTC
Vent 5 kt de ouest
Visibilité 10 km ou plus
pas de nuages en-dessous de 1500 mètres et pas de cumulonimbus.
Evoluant progressivement
du 09 à 09 UTC au 09 à 11 UTC
Vent 10 kt de est

TAF: LIQW 090600Z 0906/0915 27005KT CAVOK BECMG 0909/0911 08010KT

Observations et prévisions météorologiques de plus de 4000 aéroports (messages METAR et TAF).

Les stations disponibles sont représentées par des disques jaunes et rouges sur la carte.

Passer la souris dessus pour voir le nom de la station.

Cliquer dessus pour voir les observations et prévisions météorologiques.

Pour changer de carte: cliquez sur les boutons verts avec une croix noire pour zoomer, sur le bouton vert avec un tiret pour effectuer un zoom arrière, ou sur les flèches vertes pour les cartes adjacentes.


METAR-TAF: